Time;durP1;ratioP1;P1;durP2;ratioP2;P2;SDS_P1;SDS_P2;PMS_P1;PMS_P2;Temp;Humidity;BMP_temperature;BMP_pressure;BME280_temperature;BME280_humidity;BME280_pressure;Samples;Min_cycle;Max_cycle;Signal;HPM_P1;HPM_P2
2021/06/15 00:01:06;;;;;;;3.13;2.33;;;;;;;13.50;100.00;95914.72;5094881;28;20253;-81
2021/06/15 00:03:34;;;;;;;2.17;1.57;;;;;;;13.55;100.00;95922.91;5094382;28;20208;-80
2021/06/15 00:06:02;;;;;;;2.20;1.80;;;;;;;13.60;100.00;95909.13;5094173;28;20578;-80
2021/06/15 00:08:29;;;;;;;2.33;2.00;;;;;;;13.66;100.00;95899.66;5094031;28;20301;-80
2021/06/15 00:10:57;;;;;;;1.83;1.73;;;;;;;13.53;100.00;95906.41;5094352;28;20204;-80
2021/06/15 00:13:24;;;;;;;2.33;2.13;;;;;;;13.48;100.00;95908.81;5094250;28;20802;-81
2021/06/15 00:15:52;;;;;;;3.27;2.13;;;;;;;13.50;100.00;95919.16;5094272;28;20192;-81
2021/06/15 00:18:21;;;;;;;2.43;2.00;;;;;;;13.57;100.00;95915.59;5094146;28;20207;-81
2021/06/15 00:20:51;;;;;;;2.20;1.87;;;;;;;13.42;100.00;95920.09;5094169;28;20200;-81
2021/06/15 00:23:20;;;;;;;2.47;1.97;;;;;;;13.55;100.00;95908.88;5094106;28;20668;-81
2021/06/15 00:25:47;;;;;;;2.80;2.10;;;;;;;13.53;100.00;95916.16;5093814;28;20697;-81
2021/06/15 00:28:15;;;;;;;2.43;2.23;;;;;;;13.62;100.00;95917.69;5094282;28;20200;-81
2021/06/15 00:30:42;;;;;;;2.07;1.97;;;;;;;13.60;100.00;95910.97;5093907;28;20219;-81
2021/06/15 00:33:10;;;;;;;4.00;2.30;;;;;;;13.56;100.00;95915.81;5093637;28;20193;-81
2021/06/15 00:35:37;;;;;;;3.93;2.27;;;;;;;13.48;100.00;95910.63;5094165;28;20254;-81
2021/06/15 00:38:06;;;;;;;1.93;1.83;;;;;;;13.46;100.00;95920.56;5093888;28;20245;-81
2021/06/15 00:40:34;;;;;;;2.63;2.33;;;;;;;13.46;100.00;95921.38;5093700;28;20188;-81
2021/06/15 00:43:02;;;;;;;2.17;2.00;;;;;;;13.55;100.00;95914.16;5093486;28;20253;-81
2021/06/15 00:45:32;;;;;;;3.70;1.83;;;;;;;13.38;100.00;95910.09;5093548;28;20231;-81
2021/06/15 00:47:59;;;;;;;2.73;2.00;;;;;;;13.39;100.00;95923.09;5093716;28;20250;-81
2021/06/15 00:50:28;;;;;;;2.10;1.90;;;;;;;13.43;100.00;95934.13;5093514;28;20290;-80
2021/06/15 00:52:56;;;;;;;2.30;2.17;;;;;;;13.45;100.00;95929.47;5093717;28;20196;-81
2021/06/15 00:55:25;;;;;;;3.10;2.20;;;;;;;13.48;100.00;95910.63;5093436;28;20199;-81
2021/06/15 00:57:53;;;;;;;3.37;1.77;;;;;;;13.46;100.00;95905.53;5094083;28;20269;-81
2021/06/15 01:00:21;;;;;;;1.73;1.57;;;;;;;13.48;100.00;95911.44;5093579;28;20617;-81
2021/06/15 01:02:48;;;;;;;1.70;1.60;;;;;;;13.34;100.00;95922.84;5093400;28;20196;-80
2021/06/15 01:05:16;;;;;;;3.43;1.80;;;;;;;13.38;100.00;95920.66;5093240;28;20196;-81
2021/06/15 01:07:54;;;;;;;1.90;1.80;;;;;;;13.33;100.00;95910.63;5093098;28;20196;-80
2021/06/15 01:10:36;;;;;;;1.70;1.60;;;;;;;13.33;100.00;95908.00;5093243;28;20233;-81
2021/06/15 01:13:15;;;;;;;2.77;2.03;;;;;;;13.31;100.00;95923.22;5093250;28;20181;-81
2021/06/15 01:15:47;;;;;;;2.40;2.20;;;;;;;13.29;100.00;95904.91;5093322;28;20180;-81
2021/06/15 01:18:18;;;;;;;2.60;1.70;;;;;;;13.35;100.00;95910.47;5093014;28;20645;-80
2021/06/15 01:20:50;;;;;;;3.40;1.90;;;;;;;13.25;100.00;95913.38;5093480;28;20567;-80
2021/06/15 01:23:46;;;;;;;2.17;1.80;;;;;;;13.28;100.00;95903.28;5092826;28;20619;-80
2021/06/15 01:26:40;;;;;;;1.83;1.73;;;;;;;13.35;100.00;95902.56;5092402;28;20208;-81
2021/06/15 01:29:13;;;;;;;2.60;2.17;;;;;;;13.41;100.00;95891.25;5092769;28;20184;-80
2021/06/15 01:31:46;;;;;;;1.90;1.80;;;;;;;13.36;100.00;95888.34;5092901;28;20184;-80
2021/06/15 01:34:22;;;;;;;2.40;1.70;;;;;;;13.31;100.00;95876.53;5092603;28;20657;-81
2021/06/15 01:36:56;;;;;;;1.93;1.83;;;;;;;13.39;100.00;95888.78;5092517;28;20637;-80
2021/06/15 01:39:28;;;;;;;2.00;1.67;;;;;;;13.40;100.00;95885.13;5092635;28;20184;-81
2021/06/15 01:42:02;;;;;;;1.87;1.77;;;;;;;13.38;100.00;95887.16;5092907;28;20670;-81
2021/06/15 01:44:34;;;;;;;1.70;1.60;;;;;;;13.43;100.00;95890.06;5092523;28;20241;-80
2021/06/15 01:47:07;;;;;;;3.60;1.70;;;;;;;13.52;100.00;95877.56;5092198;28;20239;-80
2021/06/15 01:49:39;;;;;;;2.33;1.60;;;;;;;13.36;100.00;95885.69;5092547;28;20196;-80
2021/06/15 01:52:09;;;;;;;1.60;1.50;;;;;;;13.44;100.00;95897.00;5092499;28;20192;-80
2021/06/15 01:54:38;;;;;;;1.87;1.77;;;;;;;13.47;100.00;95883.41;5092621;28;20219;-81
2021/06/15 01:57:08;;;;;;;2.03;1.73;;;;;;;13.63;100.00;95858.59;5092300;28;20200;-80
2021/06/15 01:59:39;;;;;;;1.50;1.40;;;;;;;13.57;100.00;95862.78;5092281;28;20200;-80
2021/06/15 02:02:07;;;;;;;1.83;1.73;;;;;;;13.61;100.00;95870.34;5092333;28;20184;-80
2021/06/15 02:04:41;;;;;;;1.53;1.43;;;;;;;13.57;100.00;95881.28;5091918;28;20661;-80
2021/06/15 02:07:12;;;;;;;1.83;1.73;;;;;;;13.68;100.00;95873.88;5092261;28;20200;-80
2021/06/15 02:09:41;;;;;;;1.77;1.67;;;;;;;13.69;100.00;95873.69;5106996;28;20235;-82
2021/06/15 02:12:09;;;;;;;2.50;1.90;;;;;;;13.76;100.00;95874.59;5112304;28;20448;-82
2021/06/15 02:14:39;;;;;;;2.50;1.63;;;;;;;13.77;100.00;95886.78;5112154;28;20210;-81
2021/06/15 02:17:09;;;;;;;1.60;1.50;;;;;;;13.78;100.00;95884.94;5112123;28;20282;-82
2021/06/15 02:19:39;;;;;;;1.90;1.80;;;;;;;13.74;100.00;95889.78;5112371;28;20253;-83
2021/06/15 02:22:09;;;;;;;2.03;1.67;;;;;;;13.80;100.00;95885.59;5112256;28;20209;-83
2021/06/15 02:24:42;;;;;;;2.07;1.87;;;;;;;13.73;100.00;95890.81;5112243;28;20598;-83
2021/06/15 02:27:11;;;;;;;1.70;1.60;;;;;;;13.74;100.00;95897.72;5111969;28;20213;-83
2021/06/15 02:29:40;;;;;;;1.80;1.70;;;;;;;13.75;100.00;95898.53;5112106;28;20256;-83
2021/06/15 02:32:10;;;;;;;1.80;1.70;;;;;;;13.75;100.00;95906.44;5112016;28;20195;-83
2021/06/15 02:34:43;;;;;;;3.33;1.53;;;;;;;13.74;100.00;95899.53;5101864;28;20197;-83
2021/06/15 02:37:13;;;;;;;1.60;1.50;;;;;;;13.73;100.00;95903.19;5091726;28;20275;-83
2021/06/15 02:39:41;;;;;;;1.60;1.50;;;;;;;13.87;100.00;95912.06;5094411;28;20184;-82
2021/06/15 02:42:11;;;;;;;2.10;1.90;;;;;;;13.83;100.00;95900.25;5095995;28;20245;-82
2021/06/15 02:44:44;;;;;;;4.70;2.03;;;;;;;13.82;100.00;95903.88;5095796;28;20192;-82
2021/06/15 02:47:14;;;;;;;2.30;1.77;;;;;;;13.78;100.00;95904.25;5095899;28;20726;-82
2021/06/15 02:49:48;;;;;;;1.77;1.67;;;;;;;13.78;100.00;95901.59;5095460;28;20196;-82
2021/06/15 02:52:19;;;;;;;2.20;2.00;;;;;;;13.76;100.00;95918.66;5096458;28;20223;-83
2021/06/15 02:54:53;;;;;;;2.50;1.87;;;;;;;13.74;100.00;95921.47;5095701;28;20664;-82
2021/06/15 02:57:23;;;;;;;2.33;2.13;;;;;;;13.75;100.00;95928.41;5095460;28;20241;-82
2021/06/15 02:59:52;;;;;;;1.23;1.23;;;;;;;13.78;100.00;95928.03;5095455;28;20680;-81
2021/06/15 03:02:19;;;;;;;1.70;1.60;;;;;;;13.77;100.00;95941.44;5095599;28;20283;-83
2021/06/15 03:04:47;;;;;;;3.73;1.90;;;;;;;13.79;100.00;95942.88;5095675;28;20619;-82
2021/06/15 03:07:14;;;;;;;2.73;1.87;;;;;;;13.85;100.00;95930.72;5095282;28;20224;-82
2021/06/15 03:09:42;;;;;;;4.80;1.60;;;;;;;13.84;100.00;95929.09;5095210;28;20235;-80
2021/06/15 03:12:13;;;;;;;2.00;1.90;;;;;;;13.81;100.00;95934.75;5095442;28;20253;-80
2021/06/15 03:14:44;;;;;;;1.70;1.60;;;;;;;13.73;100.00;95932.25;5095304;28;20192;-80
2021/06/15 03:17:14;;;;;;;2.10;1.70;;;;;;;13.74;100.00;95939.16;5095272;28;20620;-80
2021/06/15 03:19:46;;;;;;;1.60;1.50;;;;;;;13.80;100.00;95927.84;5095212;28;20195;-80
2021/06/15 03:22:16;;;;;;;1.80;1.70;;;;;;;13.75;100.00;95915.22;5095671;28;20184;-80
2021/06/15 03:24:46;;;;;;;2.80;1.80;;;;;;;13.76;100.00;95918.66;5095212;28;20631;-80
2021/06/15 03:27:19;;;;;;;4.30;2.13;;;;;;;13.73;100.00;95922.50;5095110;28;20224;-80
2021/06/15 03:29:48;;;;;;;2.10;1.60;;;;;;;13.78;100.00;95929.84;5095433;28;20194;-80
2021/06/15 03:32:18;;;;;;;3.27;2.97;;;;;;;13.84;100.00;95944.97;5095147;28;20196;-80
2021/06/15 03:34:48;;;;;;;2.07;1.87;;;;;;;13.84;100.00;95952.06;5095026;28;20188;-80
2021/06/15 03:37:21;;;;;;;3.70;1.97;;;;;;;13.79;100.00;95961.38;5094838;28;20185;-80
2021/06/15 03:39:50;;;;;;;1.83;1.70;;;;;;;13.77;100.00;95944.06;5094911;28;20189;-80
2021/06/15 03:42:22;;;;;;;3.00;2.70;;;;;;;13.66;100.00;95926.06;5095349;28;20574;-80
2021/06/15 03:44:53;;;;;;;5.60;3.53;;;;;;;13.71;100.00;95921.03;5095182;28;20189;-81
2021/06/15 03:47:23;;;;;;;2.50;2.30;;;;;;;13.65;100.00;95935.81;5094652;28;20247;-81
2021/06/15 03:49:54;;;;;;;4.17;3.73;;;;;;;13.64;100.00;95925.44;5094213;28;20638;-83
2021/06/15 03:52:22;;;;;;;2.60;1.97;;;;;;;13.67;100.00;95920.59;5095154;28;20287;-80
2021/06/15 03:54:52;;;;;;;1.67;1.57;;;;;;;13.74;100.00;95920.66;5094585;28;20207;-80
2021/06/15 03:57:19;;;;;;;2.07;1.97;;;;;;;13.78;100.00;95904.25;5094910;28;20254;-81
2021/06/15 03:59:49;;;;;;;1.93;1.70;;;;;;;13.78;100.00;95914.00;5094512;28;20253;-80
2021/06/15 04:02:17;;;;;;;3.17;1.70;;;;;;;13.81;100.00;95903.06;5094653;28;20665;-81
2021/06/15 04:04:48;;;;;;;4.67;1.80;;;;;;;13.68;100.00;95910.84;5094355;28;20207;-81
2021/06/15 04:07:20;;;;;;;2.30;2.10;;;;;;;13.64;100.00;95922.78;5094595;28;20217;-81
2021/06/15 04:09:51;;;;;;;1.83;1.70;;;;;;;13.55;100.00;95938.75;5094079;28;20307;-80
2021/06/15 04:12:21;;;;;;;1.90;1.80;;;;;;;13.53;100.00;95938.09;5094506;28;20246;-80
2021/06/15 04:14:51;;;;;;;2.37;2.20;;;;;;;13.50;100.00;95954.31;5094228;28;20197;-80
2021/06/15 04:17:22;;;;;;;4.03;2.07;;;;;;;13.49;100.00;95947.41;5094361;28;20224;-79
2021/06/15 04:19:55;;;;;;;4.57;2.70;;;;;;;13.55;100.00;95949.31;5094486;28;20574;-79
2021/06/15 04:22:28;;;;;;;4.93;3.10;;;;;;;13.59;100.00;95938.38;5094503;28;20569;-79
2021/06/15 04:24:57;;;;;;;6.23;5.70;;;;;;;13.49;100.00;95936.84;5094407;28;20592;-79
2021/06/15 04:27:26;;;;;;;5.03;4.00;;;;;;;13.42;100.00;95933.31;5094290;28;20231;-79
2021/06/15 04:29:55;;;;;;;3.53;3.23;;;;;;;13.38;100.00;95939.97;5093985;28;20196;-84
2021/06/15 04:32:42;;;;;;;2.20;2.10;;;;;;;13.38;100.00;95945.22;5094076;28;20184;-80
2021/06/15 04:35:12;;;;;;;3.37;1.90;;;;;;;13.48;100.00;95931.75;5093857;28;20666;-80
2021/06/15 04:37:41;;;;;;;2.27;2.07;;;;;;;13.50;100.00;95924.44;5093800;28;20238;-80
2021/06/15 04:40:15;;;;;;;1.83;1.73;;;;;;;13.64;100.00;95941.28;5093426;28;20258;-80
2021/06/15 04:42:56;;;;;;;2.33;1.80;;;;;;;13.66;100.00;95931.34;5093866;28;20238;-80
2021/06/15 04:45:29;;;;;;;1.67;1.57;;;;;;;13.64;100.00;95925.44;5093485;28;20188;-80
2021/06/15 04:48:04;;;;;;;2.20;2.10;;;;;;;13.64;100.00;95920.97;5093792;28;20257;-80
2021/06/15 04:50:34;;;;;;;1.93;1.63;;;;;;;13.66;100.00;95926.88;5093907;28;20625;-80
2021/06/15 04:53:04;;;;;;;3.20;2.07;;;;;;;13.68;100.00;95924.88;5093712;28;20695;-80
2021/06/15 04:55:35;;;;;;;1.97;1.87;;;;;;;13.76;100.00;95901.00;5093253;28;20200;-80
2021/06/15 04:58:04;;;;;;;2.07;1.90;;;;;;;13.72;100.00;95896.28;5093797;28;20568;-80
2021/06/15 05:00:32;;;;;;;3.00;2.20;;;;;;;13.73;100.00;95900.56;5093427;28;20200;-80
2021/06/15 05:03:02;;;;;;;1.87;1.77;;;;;;;13.70;100.00;95893.81;5092934;28;20200;-80
2021/06/15 05:05:29;;;;;;;2.63;2.43;;;;;;;13.67;100.00;95903.94;5093062;28;20204;-80
2021/06/15 05:08:01;;;;;;;8.43;3.07;;;;;;;13.68;100.00;95902.91;5093168;28;20323;-80
2021/06/15 05:10:30;;;;;;;2.00;1.87;;;;;;;13.69;100.00;95899.28;5093183;28;20192;-80
2021/06/15 05:12:59;;;;;;;2.37;2.17;;;;;;;13.64;100.00;95897.19;5093259;28;20200;-80
2021/06/15 05:15:28;;;;;;;4.90;2.07;;;;;;;13.65;100.00;95906.78;5093030;28;20245;-80
2021/06/15 05:17:57;;;;;;;1.90;1.63;;;;;;;13.70;100.00;95887.72;5093173;28;20188;-80
2021/06/15 05:20:26;;;;;;;3.53;1.83;;;;;;;13.80;100.00;95877.66;5092963;28;20200;-80
2021/06/15 05:23:03;;;;;;;1.90;1.80;;;;;;;13.85;100.00;95883.19;5093073;28;20200;-80
2021/06/15 05:25:31;;;;;;;2.60;2.20;;;;;;;13.81;100.00;95866.09;5092989;28;20180;-80
2021/06/15 05:27:59;;;;;;;1.93;1.83;;;;;;;13.85;100.00;95856.78;5092941;28;20220;-80
2021/06/15 05:30:28;;;;;;;4.20;1.97;;;;;;;13.87;100.00;95860.06;5092773;28;20211;-80
2021/06/15 05:32:55;;;;;;;6.70;3.07;;;;;;;13.93;100.00;95853.22;5092997;28;20621;-80
2021/06/15 05:35:22;;;;;;;8.80;2.23;;;;;;;13.93;100.00;95848.75;5092678;28;20196;-80
2021/06/15 05:37:50;;;;;;;2.03;1.60;;;;;;;14.01;100.00;95851.25;5092824;28;20200;-80
2021/06/15 05:40:20;;;;;;;2.87;2.17;;;;;;;14.04;100.00;95844.75;5092662;28;20185;-80
2021/06/15 05:42:48;;;;;;;2.90;2.07;;;;;;;14.13;100.00;95843.63;5093021;28;20201;-80
2021/06/15 05:45:16;;;;;;;2.40;2.20;;;;;;;13.96;100.00;95858.13;5092214;28;20196;-80
2021/06/15 05:47:45;;;;;;;4.53;2.00;;;;;;;14.03;100.00;95854.53;5092591;28;20311;-80
2021/06/15 05:50:14;;;;;;;2.17;1.97;;;;;;;14.20;100.00;95846.28;5092683;28;20621;-80
2021/06/15 05:52:42;;;;;;;3.50;2.20;;;;;;;14.19;100.00;95842.03;5092760;28;20235;-80
2021/06/15 05:55:12;;;;;;;1.90;1.80;;;;;;;14.23;100.00;95838.00;5092186;28;20204;-80
2021/06/15 05:57:41;;;;;;;3.23;2.13;;;;;;;14.39;100.00;95829.78;5092711;28;20333;-81
2021/06/15 06:00:11;;;;;;;4.20;2.57;;;;;;;14.51;100.00;95835.38;5092663;28;20192;-80
2021/06/15 06:02:39;;;;;;;2.30;2.10;;;;;;;14.54;100.00;95857.97;5074068;28;20744;-81
2021/06/15 06:08:10;;;;;;;3.00;1.80;;;;;;;14.18;100.00;95890.63;5051187;28;20228;-81
2021/06/15 06:10:40;;;;;;;3.20;2.40;;;;;;;14.13;100.00;95891.19;5092216;28;20283;-80
2021/06/15 06:13:12;;;;;;;2.00;1.90;;;;;;;14.20;100.00;95878.00;5091885;28;20670;-80
2021/06/15 06:15:41;;;;;;;7.43;2.57;;;;;;;14.30;100.00;95844.13;5092154;28;20180;-80
2021/06/15 06:18:12;;;;;;;2.30;2.17;;;;;;;14.29;100.00;95837.22;5092149;28;20196;-80
2021/06/15 06:20:40;;;;;;;2.20;1.93;;;;;;;14.20;100.00;95838.38;5092115;28;20188;-80
2021/06/15 06:23:08;;;;;;;1.80;1.70;;;;;;;14.33;100.00;95817.31;5091945;28;20249;-80
2021/06/15 06:25:36;;;;;;;2.00;1.87;;;;;;;14.42;100.00;95810.06;5092077;28;20188;-80
2021/06/15 06:28:04;;;;;;;2.00;1.90;;;;;;;14.42;100.00;95799.50;5091945;28;20273;-80
2021/06/15 06:30:34;;;;;;;2.50;2.30;;;;;;;14.59;100.00;95776.25;5092196;28;20250;-81
2021/06/15 06:33:02;;;;;;;2.40;2.30;;;;;;;14.63;100.00;95786.22;5092098;28;20664;-81
2021/06/15 06:35:30;;;;;;;2.60;2.40;;;;;;;14.54;100.00;95766.22;5091928;28;20226;-80
2021/06/15 06:37:57;;;;;;;3.03;2.00;;;;;;;14.62;100.00;95773.22;5092312;28;20293;-80
2021/06/15 06:40:25;;;;;;;4.30;2.20;;;;;;;14.70;100.00;95750.03;5091758;28;20204;-81
2021/06/15 06:42:52;;;;;;;4.13;1.90;;;;;;;14.78;100.00;95748.25;5092124;28;20622;-80
2021/06/15 06:45:20;;;;;;;2.10;2.00;;;;;;;14.93;100.00;95756.88;5091690;28;20196;-80
2021/06/15 06:47:49;;;;;;;2.23;1.87;;;;;;;14.98;100.00;95763.19;5091802;28;20267;-80
2021/06/15 06:50:16;;;;;;;4.27;2.00;;;;;;;15.00;100.00;95765.66;5091685;28;20249;-81
2021/06/15 06:52:44;;;;;;;1.97;1.87;;;;;;;15.02;100.00;95752.19;5091859;28;20204;-81
2021/06/15 06:55:18;;;;;;;2.67;2.47;;;;;;;15.06;100.00;95722.47;5091396;28;20578;-81
2021/06/15 06:57:46;;;;;;;2.40;1.80;;;;;;;15.15;100.00;95725.78;5092149;28;20214;-81
2021/06/15 07:00:15;;;;;;;5.60;2.07;;;;;;;15.26;100.00;95727.00;5091554;28;20202;-81
2021/06/15 07:02:42;;;;;;;1.87;1.77;;;;;;;15.42;100.00;95742.53;5091570;28;20205;-80
2021/06/15 07:05:13;;;;;;;3.53;1.93;;;;;;;15.53;100.00;95739.28;5091504;28;20208;-80
2021/06/15 07:07:40;;;;;;;2.23;2.03;;;;;;;15.42;100.00;95746.00;5091408;28;20208;-81
2021/06/15 07:10:08;;;;;;;2.67;1.70;;;;;;;15.43;100.00;95762.69;5091555;28;20233;-81
2021/06/15 07:12:36;;;;;;;1.90;1.80;;;;;;;15.37;100.00;95760.84;5091380;28;20189;-81
2021/06/15 07:15:04;;;;;;;5.33;2.33;;;;;;;15.34;100.00;95782.41;5091448;28;20200;-81
2021/06/15 07:17:31;;;;;;;3.67;2.00;;;;;;;15.24;100.00;95796.06;5091579;28;20200;-81
2021/06/15 07:19:58;;;;;;;4.77;2.30;;;;;;;15.20;100.00;95802.75;5091190;28;20623;-81
2021/06/15 07:22:27;;;;;;;2.17;2.00;;;;;;;15.16;100.00;95822.69;5091490;28;20744;-81
2021/06/15 07:24:55;;;;;;;2.00;1.90;;;;;;;15.18;100.00;95820.66;5092244;28;20722;-81
2021/06/15 07:27:22;;;;;;;4.37;1.93;;;;;;;15.01;100.00;95833.44;5095551;28;20229;-81
2021/06/15 07:29:49;;;;;;;2.77;2.43;;;;;;;15.14;100.00;95841.44;5094944;28;20674;-81
2021/06/15 07:32:17;;;;;;;2.87;1.80;;;;;;;15.22;100.00;95830.66;5095539;28;20579;-81
2021/06/15 07:34:45;;;;;;;3.23;2.37;;;;;;;15.16;100.00;95838.56;5095068;28;20200;-81
2021/06/15 07:37:12;;;;;;;3.20;2.70;;;;;;;15.26;100.00;95828.44;5094891;28;20204;-80
2021/06/15 07:39:41;;;;;;;3.83;2.53;;;;;;;15.40;100.00;95803.63;5094913;28;20201;-81
2021/06/15 07:42:09;;;;;;;1.73;1.63;;;;;;;15.50;100.00;95805.91;5095031;28;20199;-81
2021/06/15 07:44:37;;;;;;;2.90;2.30;;;;;;;15.51;100.00;95796.91;5094871;28;20737;-81
2021/06/15 07:47:04;;;;;;;2.13;1.93;;;;;;;15.60;100.00;95793.06;5094709;28;20197;-81
2021/06/15 07:49:32;;;;;;;2.77;1.90;;;;;;;15.80;100.00;95800.28;5095067;28;20196;-81
2021/06/15 07:51:59;;;;;;;3.07;2.33;;;;;;;15.88;100.00;95784.97;5095043;28;20219;-81
2021/06/15 07:54:27;;;;;;;2.27;2.07;;;;;;;15.82;100.00;95779.69;5094675;28;20196;-81
2021/06/15 07:56:56;;;;;;;1.97;1.87;;;;;;;16.02;100.00;95783.16;5094796;28;20192;-81
2021/06/15 07:59:23;;;;;;;2.43;2.00;;;;;;;16.15;100.00;95785.81;5094583;28;20195;-81
2021/06/15 08:01:50;;;;;;;1.80;1.70;;;;;;;16.20;100.00;95777.22;5094993;28;20250;-81
2021/06/15 08:04:18;;;;;;;1.93;1.60;;;;;;;16.25;100.00;95773.97;5094580;28;20188;-81
2021/06/15 08:06:45;;;;;;;2.30;2.10;;;;;;;16.29;100.00;95783.94;5094946;28;20201;-81
2021/06/15 08:09:13;;;;;;;2.03;1.83;;;;;;;16.49;100.00;95781.28;5093971;28;20271;-81
2021/06/15 08:11:40;;;;;;;4.33;1.80;;;;;;;16.49;100.00;95781.28;5094422;28;20253;-81
2021/06/15 08:14:09;;;;;;;1.80;1.70;;;;;;;16.45;100.00;95776.56;5094410;28;20218;-81
2021/06/15 08:16:36;;;;;;;1.87;1.77;;;;;;;16.61;100.00;95784.09;5094532;28;20312;-81
2021/06/15 08:19:04;;;;;;;2.40;1.90;;;;;;;16.69;100.00;95785.69;5094312;28;20192;-81
2021/06/15 08:21:31;;;;;;;2.20;1.87;;;;;;;16.77;100.00;95794.28;5094647;28;20196;-81
2021/06/15 08:23:59;;;;;;;3.13;1.97;;;;;;;16.71;100.00;95784.47;5093887;28;20666;-81
2021/06/15 08:26:26;;;;;;;1.80;1.70;;;;;;;16.58;100.00;95790.63;5094236;28;20204;-81
2021/06/15 08:28:53;;;;;;;2.33;1.83;;;;;;;16.55;100.00;95783.06;5093987;28;20818;-81
2021/06/15 08:31:22;;;;;;;2.50;1.80;;;;;;;16.58;100.00;95789.81;5094322;28;20292;-81
2021/06/15 08:33:50;;;;;;;1.80;1.70;;;;;;;16.75;100.00;95784.91;5093703;28;20232;-81
2021/06/15 08:36:17;;;;;;;2.40;2.20;;;;;;;16.81;100.00;95779.56;5092960;28;20207;-81
2021/06/15 08:38:45;;;;;;;2.07;1.77;;;;;;;16.77;100.00;95781.03;5093725;28;20202;-81
2021/06/15 08:41:12;;;;;;;4.40;2.07;;;;;;;16.72;100.00;95774.66;5093877;28;20197;-81
2021/06/15 08:43:39;;;;;;;1.67;1.57;;;;;;;16.91;100.00;95791.59;5093793;28;20422;-81
2021/06/15 08:46:07;;;;;;;2.37;2.17;;;;;;;16.97;100.00;95783.63;5093581;28;20195;-81
2021/06/15 08:48:36;;;;;;;1.67;1.53;;;;;;;17.05;100.00;95769.28;5093809;28;20253;-81
2021/06/15 08:51:03;;;;;;;3.27;1.40;;;;;;;17.07;100.00;95762.72;5093713;28;20668;-81
2021/06/15 08:53:34;;;;;;;2.20;1.30;;;;;;;17.15;100.00;95767.00;5093608;28;20199;-82
2021/06/15 08:56:08;;;;;;;2.60;1.13;;;;;;;17.03;100.00;95744.78;5093637;28;20187;-81
2021/06/15 08:58:44;;;;;;;3.33;1.40;;;;;;;17.23;100.00;95748.16;5093488;28;20187;-81
2021/06/15 09:01:12;;;;;;;1.40;1.30;;;;;;;17.25;100.00;95737.28;5093495;28;20199;-81
2021/06/15 09:03:41;;;;;;;1.90;1.80;;;;;;;17.26;100.00;95738.94;5093674;28;20560;-81
2021/06/15 09:06:09;;;;;;;2.03;1.80;;;;;;;17.40;100.00;95735.19;5093412;28;20636;-81
2021/06/15 09:08:52;;;;;;;1.23;1.20;;;;;;;17.40;100.00;95731.72;5093097;28;20661;-82
2021/06/15 09:11:20;;;;;;;6.33;2.13;;;;;;;17.49;100.00;95741.88;5093409;28;20277;-81
2021/06/15 09:13:48;;;;;;;1.63;1.30;;;;;;;17.54;100.00;95723.44;5092983;28;20200;-81
2021/06/15 09:16:22;;;;;;;1.67;1.57;;;;;;;17.59;100.00;95722.78;5093523;28;20254;-81
2021/06/15 09:18:53;;;;;;;1.27;1.27;;;;;;;17.65;100.00;95718.44;5093421;28;20182;-81
2021/06/15 09:21:41;;;;;;;2.97;1.57;;;;;;;17.63;100.00;95721.34;5093171;28;20249;-81
2021/06/15 09:24:10;;;;;;;11.37;7.03;;;;;;;17.55;100.00;95727.72;5093038;28;20188;-81
2021/06/15 09:27:00;;;;;;;4.30;3.33;;;;;;;17.35;100.00;95727.88;5093330;28;20192;-81
2021/06/15 09:29:46;;;;;;;6.97;5.57;;;;;;;17.46;100.00;95729.00;5092796;28;20211;-81
2021/06/15 09:32:17;;;;;;;2.30;2.07;;;;;;;17.32;100.00;95736.25;5092752;28;20262;-81
2021/06/15 09:34:55;;;;;;;4.37;2.50;;;;;;;17.37;100.00;95740.09;5092757;28;20195;-81
2021/06/15 09:37:43;;;;;;;2.00;1.80;;;;;;;17.44;100.00;95731.06;5092910;28;20188;-81
2021/06/15 09:40:15;;;;;;;1.40;1.30;;;;;;;17.52;100.00;95732.63;5086888;28;20207;-81
2021/06/15 09:42:54;;;;;;;1.27;1.17;;;;;;;17.52;100.00;95720.16;5092875;28;20612;-81
2021/06/15 09:45:23;;;;;;;4.23;1.50;;;;;;;17.57;100.00;95715.03;5092795;28;20228;-81
2021/06/15 09:47:51;;;;;;;3.60;1.23;;;;;;;17.70;100.00;95711.47;5092319;28;20593;-82
2021/06/15 09:50:22;;;;;;;1.80;1.20;;;;;;;17.97;100.00;95712.06;5092487;28;20665;-81
2021/06/15 09:52:50;;;;;;;1.73;1.10;;;;;;;17.95;100.00;95718.66;5092353;28;20177;-81
2021/06/15 09:55:18;;;;;;;1.40;1.30;;;;;;;18.14;100.00;95714.97;5092724;28;20585;-81
2021/06/15 09:57:51;;;;;;;2.93;1.80;;;;;;;18.20;100.00;95706.13;5092453;28;20199;-81
2021/06/15 10:00:20;;;;;;;5.23;3.97;;;;;;;18.21;100.00;95704.28;5092674;28;20643;-81
2021/06/15 10:02:50;;;;;;;2.27;1.70;;;;;;;18.34;100.00;95703.34;5092419;28;20669;-81
2021/06/15 10:05:27;;;;;;;5.90;1.60;;;;;;;18.32;100.00;95698.22;5092234;28;20228;-82
2021/06/15 10:07:57;;;;;;;2.03;1.83;;;;;;;18.27;100.00;95698.91;5092060;28;20279;-82
2021/06/15 10:10:26;;;;;;;1.63;1.50;;;;;;;18.24;100.00;95696.69;5092414;28;20189;-82
2021/06/15 10:12:54;;;;;;;1.20;1.20;;;;;;;18.19;100.00;95701.06;5092041;28;20729;-81
2021/06/15 10:15:23;;;;;;;1.60;1.20;;;;;;;18.33;100.00;95685.75;5092212;28;20185;-81
2021/06/15 10:17:51;;;;;;;1.03;1.03;;;;;;;18.03;100.00;95692.59;5092217;28;20204;-81
2021/06/15 10:20:20;;;;;;;1.20;1.10;;;;;;;18.12;100.00;95694.97;5092019;28;20196;-81
2021/06/15 10:22:50;;;;;;;1.00;1.00;;;;;;;17.94;100.00;95693.06;5091995;28;20200;-81
2021/06/15 10:25:19;;;;;;;1.20;1.20;;;;;;;17.92;100.00;95689.84;5092022;28;20212;-81
2021/06/15 10:27:49;;;;;;;1.07;1.03;;;;;;;17.87;100.00;95685.16;5092382;28;20226;-81
2021/06/15 10:30:19;;;;;;;1.33;1.23;;;;;;;17.99;100.00;95687.94;5091788;28;20220;-81
2021/06/15 10:32:54;;;;;;;1.10;1.00;;;;;;;18.17;100.00;95682.63;5091822;28;20198;-81
2021/06/15 10:35:44;;;;;;;0.97;0.97;;;;;;;18.32;100.00;95674.28;5092171;28;20587;-81
2021/06/15 10:38:17;;;;;;;0.90;0.90;;;;;;;18.47;100.00;95672.09;5092135;28;20234;-82
2021/06/15 10:40:49;;;;;;;0.90;0.90;;;;;;;18.56;100.00;95664.59;5091977;28;20195;-81
2021/06/15 10:43:22;;;;;;;1.57;1.20;;;;;;;18.87;100.00;95655.63;5091862;28;20249;-81
2021/06/15 10:45:52;;;;;;;0.90;0.90;;;;;;;19.15;100.00;95641.72;5092144;28;20184;-81
2021/06/15 10:48:45;;;;;;;1.37;1.27;;;;;;;19.22;100.00;95650.44;5092260;28;20189;-81
2021/06/15 10:51:24;;;;;;;2.03;1.20;;;;;;;19.24;100.00;95644.88;5092068;28;20208;-81
2021/06/15 10:54:01;;;;;;;0.83;0.83;;;;;;;19.07;100.00;95660.69;5091706;28;20195;-81
2021/06/15 10:56:33;;;;;;;1.43;1.10;;;;;;;19.39;100.00;95633.78;5092040;28;20200;-81
2021/06/15 10:59:11;;;;;;;1.10;1.00;;;;;;;19.43;100.00;95648.28;5091622;28;20223;-81
2021/06/15 11:01:43;;;;;;;2.40;1.10;;;;;;;19.56;100.00;95628.59;5095231;28;20193;-81
2021/06/15 11:04:12;;;;;;;1.00;1.00;;;;;;;19.12;100.00;95642.19;5095656;28;20196;-82
2021/06/15 11:06:55;;;;;;;0.90;0.90;;;;;;;18.98;100.00;95648.72;5095710;28;20192;-81
2021/06/15 11:09:36;;;;;;;1.10;1.03;;;;;;;18.93;100.00;95635.28;5095408;28;20247;-81
2021/06/15 11:12:22;;;;;;;3.53;0.90;;;;;;;18.94;100.00;95627.06;5095471;28;20253;-81
2021/06/15 11:15:09;;;;;;;1.03;1.00;;;;;;;18.74;100.00;95616.72;5095169;28;20238;-81
2021/06/15 11:17:51;;;;;;;0.93;0.93;;;;;;;18.67;100.00;95612.47;5095557;28;20257;-81
2021/06/15 11:20:27;;;;;;;0.90;0.90;;;;;;;18.68;100.00;95596.28;5095052;28;20238;-81
2021/06/15 11:23:28;;;;;;;0.80;0.80;;;;;;;18.76;100.00;95617.28;5095563;28;20667;-81
2021/06/15 11:26:01;;;;;;;2.73;1.57;;;;;;;18.56;100.00;95616.69;5080767;28;20290;-81
2021/06/15 11:28:45;;;;;;;3.83;1.40;;;;;;;18.45;100.00;95647.53;5095472;28;20184;-81
2021/06/15 11:31:33;;;;;;;4.10;1.23;;;;;;;18.36;100.00;95654.22;5095063;28;20187;-81
2021/06/15 11:34:19;;;;;;;5.90;2.20;;;;;;;18.32;100.00;95626.41;5095120;28;20750;-81
2021/06/15 11:36:52;;;;;;;3.67;1.83;;;;;;;18.35;100.00;95611.84;5095266;28;20241;-81
2021/06/15 11:39:34;;;;;;;1.30;1.27;;;;;;;18.39;100.00;95621.84;5094879;28;20187;-81
2021/06/15 11:42:23;;;;;;;1.43;1.30;;;;;;;18.33;100.00;95648.53;5095115;28;20258;-81
2021/06/15 11:45:09;;;;;;;0.77;0.77;;;;;;;18.10;100.00;95636.69;5095147;28;20185;-82